Time;durP1;ratioP1;P1;durP2;ratioP2;P2;SDS_P1;SDS_P2;PMS_P1;PMS_P2;Temp;Humidity;BMP_temperature;BMP_pressure;BME280_temperature;BME280_humidity;BME280_pressure;Samples;Min_cycle;Max_cycle;Signal;HPM_P1;HPM_P2
2023/05/04 00:02:20;;;;;;;0.82;0.82;;;5.20;99.90;;;;;;5031296;28;20037;-79
2023/05/04 00:04:45;;;;;;;0.52;0.52;;;5.20;99.90;;;;;;5002688;28;20037;-79
2023/05/04 00:07:11;;;;;;;0.60;0.60;;;5.10;99.90;;;;;;5026565;28;20048;-79
2023/05/04 00:09:37;;;;;;;0.68;0.68;;;5.10;99.90;;;;;;5009323;28;20075;-80
2023/05/04 00:12:03;;;;;;;;;;;5.10;99.90;;;;;;5029574;28;20037;-81
2023/05/04 00:14:29;;;;;;;0.60;0.60;;;5.10;99.90;;;;;;4996229;28;20065;-82
2023/05/04 00:16:54;;;;;;;0.52;0.52;;;5.00;99.90;;;;;;5032534;28;20101;-78
2023/05/04 00:19:20;;;;;;;0.63;0.63;;;5.00;99.90;;;;;;5031830;28;20379;-79
2023/05/04 00:21:46;;;;;;;0.70;0.70;;;5.00;99.90;;;;;;4991804;28;20483;-78
2023/05/04 00:24:12;;;;;;;0.70;0.70;;;5.00;99.90;;;;;;5013486;28;20037;-78
2023/05/04 00:26:38;;;;;;;0.68;0.68;;;4.90;99.90;;;;;;5032248;28;20037;-79
2023/05/04 00:29:04;;;;;;;0.60;0.60;;;5.50;99.90;;;;;;5029633;28;20611;-79
2023/05/04 00:31:30;;;;;;;0.70;0.70;;;5.40;99.90;;;;;;5030961;28;20080;-78
2023/05/04 00:33:55;;;;;;;0.60;0.60;;;4.90;99.90;;;;;;5015720;28;20060;-78
2023/05/04 00:36:21;;;;;;;0.50;0.50;;;4.90;99.90;;;;;;5031049;28;20056;-79
2023/05/04 00:38:53;;;;;;;0.50;0.50;;;4.80;99.90;;;;;;5027241;28;20041;-80
2023/05/04 00:41:20;;;;;;;0.50;0.50;;;4.80;99.90;;;;;;5029476;28;20052;-79
2023/05/04 00:43:46;;;;;;;0.60;0.60;;;4.80;99.90;;;;;;5012379;28;20041;-80
2023/05/04 00:46:12;;;;;;;0.43;0.43;;;4.80;99.90;;;;;;5012906;28;20076;-78
2023/05/04 00:48:40;;;;;;;0.50;0.50;;;4.90;99.90;;;;;;5012818;28;20045;-78
2023/05/04 00:51:07;;;;;;;0.70;0.70;;;4.80;99.90;;;;;;5027410;28;20048;-78
2023/05/04 00:53:35;;;;;;;0.63;0.63;;;4.80;99.90;;;;;;5025642;28;20068;-78
2023/05/04 00:56:01;;;;;;;0.70;0.70;;;4.70;99.90;;;;;;5013890;28;20041;-79
2023/05/04 00:58:28;;;;;;;0.65;0.65;;;4.70;99.90;;;;;;5024310;28;20169;-79
2023/05/04 01:00:54;;;;;;;0.60;0.60;;;4.70;99.90;;;;;;5012848;28;20029;-77
2023/05/04 01:03:20;;;;;;;0.70;0.70;;;4.70;99.90;;;;;;4994993;28;20036;-78
2023/05/04 01:06:09;;;;;;;0.70;0.70;;;4.70;99.90;;;;;;5002657;28;20037;-79
2023/05/04 01:08:43;;;;;;;0.80;0.80;;;4.60;99.90;;;;;;5004513;28;20394;-80
2023/05/04 01:11:35;;;;;;;0.63;0.63;;;4.60;99.90;;;;;;5012505;28;20088;-77
2023/05/04 01:14:01;;;;;;;0.60;0.60;;;4.60;99.90;;;;;;5023563;28;20049;-77
2023/05/04 01:16:27;;;;;;;0.70;0.70;;;4.60;99.90;;;;;;5008087;28;20103;-77
2023/05/04 01:18:53;;;;;;;0.52;0.52;;;4.60;99.90;;;;;;5026722;28;20576;-79
2023/05/04 01:21:19;;;;;;;0.70;0.70;;;4.60;99.90;;;;;;5013024;28;20037;-79
2023/05/04 01:23:45;;;;;;;1.30;1.30;;;4.60;99.90;;;;;;5014441;28;20586;-80
2023/05/04 01:26:23;;;;;;;0.50;0.50;;;4.60;99.90;;;;;;5012277;28;20094;-78
2023/05/04 01:29:14;;;;;;;0.70;0.70;;;4.60;99.90;;;;;;5016545;28;20124;-77
2023/05/04 01:31:43;;;;;;;0.60;0.60;;;4.60;99.90;;;;;;5025988;28;20041;-77
2023/05/04 01:34:09;;;;;;;0.70;0.70;;;4.60;99.90;;;;;;5028199;28;20063;-77
2023/05/04 01:36:35;;;;;;;0.50;0.50;;;4.60;99.90;;;;;;5012850;28;20526;-78
2023/05/04 01:39:03;;;;;;;0.60;0.60;;;4.60;99.90;;;;;;5030184;28;20128;-77
2023/05/04 01:41:29;;;;;;;0.60;0.60;;;4.70;99.90;;;;;;5010236;28;20047;-77
2023/05/04 01:43:56;;;;;;;0.60;0.60;;;4.50;99.90;;;;;;4995727;28;20037;-77
2023/05/04 01:46:22;;;;;;;0.63;0.63;;;4.50;99.90;;;;;;5016557;28;20094;-77
2023/05/04 01:48:47;;;;;;;0.60;0.60;;;4.50;99.90;;;;;;5028869;28;20037;-77
2023/05/04 01:51:13;;;;;;;0.70;0.70;;;4.50;99.90;;;;;;5009917;28;20128;-77
2023/05/04 01:53:39;;;;;;;0.60;0.60;;;4.50;99.90;;;;;;4996017;28;20057;-78
2023/05/04 01:56:05;;;;;;;0.60;0.60;;;4.40;99.90;;;;;;4995768;28;20045;-77
2023/05/04 01:58:31;;;;;;;0.55;0.55;;;4.40;99.90;;;;;;5012664;28;20072;-78
2023/05/04 02:00:58;;;;;;;0.60;0.60;;;4.40;99.90;;;;;;4995732;28;20061;-79
2023/05/04 02:03:24;;;;;;;0.60;0.60;;;4.40;99.90;;;;;;5022456;28;20071;-79
2023/05/04 02:05:51;;;;;;;0.50;0.50;;;4.40;99.90;;;;;;5031978;28;20040;-80
2023/05/04 02:08:16;;;;;;;;;;;4.40;99.90;;;;;;5032225;28;20056;-79
2023/05/04 02:10:42;;;;;;;0.70;0.70;;;4.40;99.90;;;;;;5035229;28;20312;-77
2023/05/04 02:13:08;;;;;;;0.70;0.70;;;4.30;99.90;;;;;;5011236;28;20110;-78
2023/05/04 02:15:33;;;;;;;0.60;0.60;;;4.30;99.90;;;;;;5013687;28;20048;-78
2023/05/04 02:17:59;;;;;;;0.70;0.70;;;4.50;99.90;;;;;;5016272;28;20152;-78
2023/05/04 02:20:25;;;;;;;0.50;0.50;;;4.40;99.90;;;;;;5024077;28;20037;-79
2023/05/04 02:22:50;;;;;;;0.52;0.52;;;4.40;99.90;;;;;;5027936;28;20051;-78
2023/05/04 02:25:16;;;;;;;0.77;0.77;;;4.50;99.90;;;;;;5012006;28;20171;-79
2023/05/04 02:27:42;;;;;;;0.70;0.70;;;4.40;99.90;;;;;;4998369;28;20085;-78
2023/05/04 02:30:08;;;;;;;0.60;0.60;;;4.40;99.90;;;;;;5013953;28;20040;-77
2023/05/04 02:32:35;;;;;;;0.60;0.60;;;4.40;99.90;;;;;;5026389;28;20061;-78
2023/05/04 02:35:01;;;;;;;0.60;0.60;;;4.40;99.90;;;;;;5007637;28;20049;-79
2023/05/04 02:37:26;;;;;;;0.60;0.60;;;4.40;99.90;;;;;;5029314;28;20448;-78
2023/05/04 02:39:52;;;;;;;0.55;0.55;;;4.40;99.90;;;;;;5013739;28;20041;-78
2023/05/04 02:42:18;;;;;;;1.52;1.50;;;4.40;99.90;;;;;;5030458;28;20036;-79
2023/05/04 02:44:44;;;;;;;0.57;0.57;;;4.40;99.90;;;;;;5026509;28;20048;-78
2023/05/04 02:47:09;;;;;;;0.60;0.60;;;4.40;99.90;;;;;;5027880;28;20060;-79
2023/05/04 02:49:35;;;;;;;0.57;0.57;;;4.30;99.90;;;;;;5031712;28;20117;-79
2023/05/04 02:52:01;;;;;;;0.70;0.70;;;4.30;99.90;;;;;;5029404;28;20452;-77
2023/05/04 02:54:26;;;;;;;0.65;0.65;;;4.30;99.90;;;;;;5027820;28;20102;-77
2023/05/04 02:56:52;;;;;;;0.70;0.70;;;4.30;99.90;;;;;;5014149;28;20037;-79
2023/05/04 02:59:18;;;;;;;0.60;0.60;;;4.30;99.90;;;;;;5020148;28;20146;-79
2023/05/04 03:01:44;;;;;;;0.50;0.50;;;4.30;99.90;;;;;;4997087;28;20045;-78
2023/05/04 03:04:09;;;;;;;0.55;0.55;;;4.50;99.90;;;;;;5030007;28;20029;-79
2023/05/04 03:06:35;;;;;;;0.70;0.70;;;4.30;99.90;;;;;;5026200;28;20041;-78
2023/05/04 03:09:01;;;;;;;0.75;0.75;;;4.20;99.90;;;;;;5030004;28;20123;-78
2023/05/04 03:11:26;;;;;;;0.60;0.60;;;4.20;99.90;;;;;;4997485;28;20041;-79
2023/05/04 03:13:52;;;;;;;0.63;0.63;;;5.00;99.90;;;;;;5030231;28;20069;-80
2023/05/04 03:16:18;;;;;;;0.70;0.70;;;4.20;99.90;;;;;;5013090;28;20041;-79
2023/05/04 03:18:43;;;;;;;0.60;0.60;;;4.20;99.90;;;;;;5011373;28;20045;-79
2023/05/04 03:21:09;;;;;;;0.60;0.60;;;4.50;99.90;;;;;;5026652;28;20040;-80
2023/05/04 03:23:35;;;;;;;0.57;0.57;;;4.20;99.90;;;;;;4997519;28;20068;-80
2023/05/04 03:26:01;;;;;;;0.70;0.70;;;4.20;99.90;;;;;;4994005;28;20395;-79
2023/05/04 03:28:26;;;;;;;0.70;0.70;;;4.30;99.90;;;;;;5031514;28;20124;-79
2023/05/04 03:30:52;;;;;;;0.60;0.60;;;4.20;99.90;;;;;;5012062;28;20075;-79
2023/05/04 03:33:18;;;;;;;0.60;0.60;;;4.70;99.90;;;;;;5031283;28;20565;-79
2023/05/04 03:35:43;;;;;;;0.80;0.80;;;4.20;99.90;;;;;;5024697;28;20041;-79
2023/05/04 03:38:10;;;;;;;0.60;0.60;;;4.20;99.90;;;;;;5026916;28;20480;-80
2023/05/04 03:40:36;;;;;;;0.60;0.60;;;4.20;99.90;;;;;;5026364;28;20041;-80
2023/05/04 03:43:01;;;;;;;0.73;0.73;;;4.70;99.90;;;;;;5008482;28;20047;-79
2023/05/04 03:45:27;;;;;;;0.60;0.60;;;4.30;99.90;;;;;;5031113;28;20463;-80
2023/05/04 03:47:56;;;;;;;0.60;0.60;;;4.40;99.90;;;;;;5030959;28;20055;-80
2023/05/04 03:50:22;;;;;;;0.60;0.60;;;4.80;99.90;;;;;;5027109;28;20037;-80
2023/05/04 03:52:48;;;;;;;0.70;0.70;;;4.30;99.90;;;;;;5047997;28;20089;-81
2023/05/04 03:55:14;;;;;;;;;;;4.30;99.90;;;;;;5011596;28;20047;-79
2023/05/04 03:57:40;;;;;;;0.63;0.63;;;4.30;99.90;;;;;;5012094;28;19921;-81
2023/05/04 04:00:07;;;;;;;0.60;0.60;;;4.40;99.90;;;;;;5013780;28;20101;-81
2023/05/04 04:02:33;;;;;;;0.70;0.70;;;4.40;99.90;;;;;;5025974;28;20045;-81
2023/05/04 04:04:59;;;;;;;0.63;0.63;;;4.90;99.90;;;;;;5011045;28;20041;-80
2023/05/04 04:07:25;;;;;;;0.70;0.70;;;5.00;99.90;;;;;;5012554;28;20538;-81
2023/05/04 04:09:51;;;;;;;0.55;0.55;;;4.50;99.90;;;;;;4992649;28;20179;-81
2023/05/04 04:12:19;;;;;;;0.60;0.60;;;4.50;99.90;;;;;;5010767;28;20048;-80
2023/05/04 04:14:46;;;;;;;0.60;0.60;;;4.50;99.90;;;;;;5023917;28;20128;-79
2023/05/04 04:17:11;;;;;;;0.60;0.60;;;4.60;99.90;;;;;;4998196;28;20078;-80
2023/05/04 04:19:37;;;;;;;0.70;0.70;;;4.60;99.90;;;;;;5031776;28;20503;-81
2023/05/04 04:22:03;;;;;;;0.70;0.70;;;4.80;99.90;;;;;;5015841;28;20044;-80
2023/05/04 04:24:28;;;;;;;0.80;0.80;;;4.60;99.90;;;;;;5028627;28;20043;-80
2023/05/04 04:26:54;;;;;;;0.70;0.70;;;4.60;99.90;;;;;;4995238;28;20540;-80
2023/05/04 04:29:19;;;;;;;0.50;0.50;;;4.70;99.90;;;;;;5032663;28;20037;-80
2023/05/04 04:31:45;;;;;;;0.60;0.60;;;4.70;99.90;;;;;;5027844;28;20448;-80
2023/05/04 04:34:11;;;;;;;0.45;0.45;;;4.70;99.90;;;;;;5012231;28;20167;-80
2023/05/04 04:36:37;;;;;;;0.55;0.55;;;4.80;99.90;;;;;;5009162;28;20041;-79
2023/05/04 04:39:04;;;;;;;;;;;4.90;99.90;;;;;;5030444;28;20047;-80
2023/05/04 04:41:30;;;;;;;;;;;4.80;99.90;;;;;;5013487;28;19921;-81
2023/05/04 04:43:56;;;;;;;0.60;0.60;;;4.80;99.90;;;;;;5045584;28;20015;-79
2023/05/04 04:46:21;;;;;;;0.60;0.60;;;4.80;99.90;;;;;;5014699;28;20045;-78
2023/05/04 04:48:48;;;;;;;0.65;0.65;;;4.80;99.90;;;;;;5029388;28;20049;-80
2023/05/04 04:51:13;;;;;;;0.60;0.60;;;4.90;99.90;;;;;;4994160;28;20051;-81
2023/05/04 04:53:39;;;;;;;0.68;0.68;;;4.90;99.90;;;;;;5013548;28;20037;-78
2023/05/04 04:56:06;;;;;;;0.60;0.60;;;5.00;99.90;;;;;;5013184;28;20458;-82
2023/05/04 04:58:32;;;;;;;0.60;0.60;;;5.10;99.90;;;;;;4996571;28;20457;-79
2023/05/04 05:00:58;;;;;;;0.60;0.60;;;5.10;99.90;;;;;;5027523;28;20033;-81
2023/05/04 05:03:24;;;;;;;0.70;0.70;;;5.20;99.90;;;;;;5029589;28;20036;-79
2023/05/04 05:05:50;;;;;;;0.70;0.70;;;5.30;99.90;;;;;;5012658;28;20042;-80
2023/05/04 05:08:16;;;;;;;0.60;0.60;;;5.30;99.90;;;;;;5012191;28;20387;-80
2023/05/04 05:10:42;;;;;;;0.60;0.60;;;5.40;99.90;;;;;;5029079;28;20461;-80
2023/05/04 05:13:08;;;;;;;0.50;0.50;;;5.50;99.90;;;;;;5010881;28;20088;-79
2023/05/04 05:15:34;;;;;;;0.50;0.50;;;5.50;99.90;;;;;;5029145;28;20033;-78
2023/05/04 05:17:59;;;;;;;0.60;0.60;;;5.60;99.90;;;;;;5030163;28;20051;-81
2023/05/04 05:20:25;;;;;;;0.70;0.70;;;5.70;99.90;;;;;;5030651;28;20032;-81
2023/05/04 05:22:51;;;;;;;0.57;0.57;;;5.80;99.90;;;;;;4996656;28;20399;-80
2023/05/04 05:25:17;;;;;;;0.60;0.60;;;6.00;99.90;;;;;;5002264;28;20728;-79
2023/05/04 05:27:43;;;;;;;0.50;0.50;;;6.00;99.90;;;;;;5028302;28;20052;-81
2023/05/04 05:30:10;;;;;;;0.50;0.50;;;6.10;99.90;;;;;;5030185;28;20037;-79
2023/05/04 05:32:36;;;;;;;0.60;0.60;;;6.20;99.90;;;;;;5014827;28;20041;-78
2023/05/04 05:35:03;;;;;;;0.50;0.50;;;6.20;99.90;;;;;;5037990;28;20413;-78
2023/05/04 05:37:30;;;;;;;0.40;0.40;;;6.30;99.90;;;;;;5003120;28;20037;-78
2023/05/04 05:39:55;;;;;;;0.50;0.50;;;6.40;99.90;;;;;;5037958;28;20500;-79
2023/05/04 05:42:21;;;;;;;0.77;0.77;;;6.50;99.90;;;;;;5001057;28;20060;-78
2023/05/04 05:44:47;;;;;;;0.65;0.65;;;6.60;99.90;;;;;;5018990;28;20045;-79
2023/05/04 05:47:13;;;;;;;0.50;0.50;;;6.70;99.90;;;;;;5043755;28;20083;-80
2023/05/04 05:49:40;;;;;;;0.77;0.77;;;7.10;99.90;;;;;;5041624;28;20084;-78
2023/05/04 05:52:05;;;;;;;0.60;0.60;;;6.80;99.90;;;;;;5034837;28;20044;-78
2023/05/04 05:54:32;;;;;;;0.60;0.60;;;6.90;99.90;;;;;;5031601;28;20398;-79
2023/05/04 05:56:57;;;;;;;;;;;7.10;99.90;;;;;;5033388;28;20441;-81
2023/05/04 05:59:23;;;;;;;0.45;0.45;;;7.10;99.90;;;;;;5018001;28;19925;-82
2023/05/04 06:01:48;;;;;;;0.57;0.57;;;7.10;99.90;;;;;;5003677;28;20045;-80
2023/05/04 06:04:14;;;;;;;0.55;0.55;;;7.20;99.90;;;;;;5011403;28;20964;-82
2023/05/04 06:06:40;;;;;;;0.50;0.50;;;7.30;99.90;;;;;;4989931;28;20047;-84
2023/05/04 06:09:06;;;;;;;0.40;0.40;;;7.40;99.90;;;;;;5012714;28;20045;-80
2023/05/04 06:11:31;;;;;;;0.50;0.50;;;7.50;99.90;;;;;;5016098;28;20045;-80
2023/05/04 06:13:57;;;;;;;0.40;0.40;;;7.50;99.90;;;;;;5000779;28;20033;-81
2023/05/04 06:16:23;;;;;;;0.47;0.47;;;7.60;99.90;;;;;;5017905;28;20044;-80
2023/05/04 06:18:49;;;;;;;0.60;0.60;;;7.70;99.90;;;;;;5036075;28;20052;-81
2023/05/04 06:21:14;;;;;;;0.40;0.40;;;7.80;99.90;;;;;;5029052;28;20120;-81
2023/05/04 06:23:40;;;;;;;0.40;0.40;;;7.90;99.90;;;;;;5000553;28;20041;-81
2023/05/04 06:26:09;;;;;;;0.28;0.28;;;7.90;99.90;;;;;;5014716;28;20048;-80
2023/05/04 06:28:35;;;;;;;1.35;1.25;;;8.10;99.90;;;;;;5013252;28;20489;-81
2023/05/04 06:31:01;;;;;;;0.50;0.50;;;8.10;99.90;;;;;;5014927;28;20124;-80
2023/05/04 06:33:27;;;;;;;1.02;1.02;;;8.20;99.90;;;;;;5033595;28;20114;-80
2023/05/04 06:35:52;;;;;;;;;;;8.30;99.90;;;;;;5038542;28;20648;-79
2023/05/04 06:38:18;;;;;;;0.32;0.32;;;8.40;99.90;;;;;;5034163;28;19921;-82
2023/05/04 06:40:44;;;;;;;0.75;0.75;;;8.40;99.90;;;;;;5015741;28;20207;-81
2023/05/04 06:43:10;;;;;;;0.40;0.40;;;8.50;99.90;;;;;;5034015;28;20073;-81
2023/05/04 06:45:36;;;;;;;0.50;0.50;;;8.60;99.90;;;;;;4999715;28;20546;-83
2023/05/04 06:48:02;;;;;;;0.50;0.50;;;8.60;99.90;;;;;;5024230;28;20045;-83
2023/05/04 06:50:29;;;;;;;0.57;0.57;;;8.70;99.90;;;;;;5010419;28;20036;-82
2023/05/04 06:53:08;;;;;;;0.40;0.40;;;8.90;99.90;;;;;;5032742;28;20148;-86
2023/05/04 06:55:37;;;;;;;0.60;0.60;;;9.00;99.90;;;;;;5036042;28;20048;-86
2023/05/04 06:58:03;;;;;;;0.55;0.55;;;9.00;99.90;;;;;;5034667;28;20066;-85
2023/05/04 07:00:30;;;;;;;0.32;0.32;;;9.10;99.90;;;;;;5026246;28;20084;-85
2023/05/04 07:02:56;;;;;;;0.43;0.43;;;9.20;99.90;;;;;;5002020;28;20094;-75
2023/05/04 07:05:22;;;;;;;0.40;0.40;;;9.30;99.90;;;;;;5028864;28;20511;-75
2023/05/04 07:07:48;;;;;;;;;;;9.40;99.90;;;;;;5027777;28;20123;-74
2023/05/04 07:10:14;;;;;;;0.50;0.50;;;9.50;99.90;;;;;;5032229;28;20036;-75
2023/05/04 07:12:40;;;;;;;0.77;0.77;;;9.50;99.90;;;;;;5014732;28;20091;-73
2023/05/04 07:15:10;;;;;;;0.57;0.57;;;9.70;99.90;;;;;;5031325;28;20136;-74
2023/05/04 07:17:37;;;;;;;0.30;0.30;;;9.80;99.90;;;;;;5012290;28;20037;-74
2023/05/04 07:20:04;;;;;;;0.57;0.57;;;9.90;99.90;;;;;;5028521;28;20048;-74
2023/05/04 07:22:30;;;;;;;0.40;0.40;;;9.90;99.90;;;;;;5028576;28;20044;-74
2023/05/04 07:25:05;;;;;;;0.52;0.52;;;10.10;99.90;;;;;;5025022;28;20151;-73
2023/05/04 07:27:31;;;;;;;0.40;0.40;;;10.10;99.90;;;;;;5026808;28;20090;-73
2023/05/04 07:29:57;;;;;;;0.50;0.50;;;10.20;99.90;;;;;;5029971;28;21282;-73
2023/05/04 07:32:22;;;;;;;0.40;0.40;;;10.20;99.90;;;;;;5023905;28;20720;-73
2023/05/04 07:34:48;;;;;;;0.40;0.40;;;10.30;99.90;;;;;;5040235;28;20053;-73
2023/05/04 07:37:16;;;;;;;0.98;0.98;;;10.30;99.90;;;;;;5010141;28;20049;-74
2023/05/04 07:39:42;;;;;;;0.40;0.40;;;10.40;99.90;;;;;;5030206;28;20044;-73
2023/05/04 07:42:10;;;;;;;0.30;0.30;;;10.50;99.90;;;;;;5027776;28;20170;-74
2023/05/04 07:44:36;;;;;;;0.50;0.50;;;10.50;99.90;;;;;;5044666;28;20127;-74
2023/05/04 07:47:02;;;;;;;0.70;0.70;;;10.60;99.90;;;;;;5047756;28;20124;-75
2023/05/04 07:49:27;;;;;;;0.50;0.50;;;10.60;99.90;;;;;;5013609;28;20560;-74
2023/05/04 07:51:53;;;;;;;0.40;0.40;;;10.60;99.90;;;;;;5026349;28;20401;-73
2023/05/04 07:54:19;;;;;;;0.57;0.57;;;10.60;99.90;;;;;;5029016;28;20033;-74
2023/05/04 07:56:45;;;;;;;0.50;0.50;;;10.70;99.90;;;;;;5046929;28;20094;-75
2023/05/04 07:59:11;;;;;;;0.60;0.60;;;10.80;99.90;;;;;;5029310;28;20048;-74
2023/05/04 08:01:36;;;;;;;0.40;0.40;;;10.90;99.90;;;;;;5022629;28;20037;-74
2023/05/04 08:04:02;;;;;;;0.38;0.38;;;11.10;99.90;;;;;;5027358;28;20298;-74
2023/05/04 08:06:28;;;;;;;0.30;0.30;;;11.30;99.90;;;;;;5044852;28;20123;-74
2023/05/04 08:08:53;;;;;;;0.45;0.45;;;11.40;99.90;;;;;;5026206;28;20037;-74
2023/05/04 08:11:19;;;;;;;0.40;0.40;;;11.50;99.90;;;;;;5025701;28;20048;-74
2023/05/04 08:13:46;;;;;;;0.30;0.30;;;11.60;99.90;;;;;;5011258;28;20096;-75
2023/05/04 08:16:12;;;;;;;0.45;0.45;;;11.80;99.90;;;;;;5012426;28;20041;-75
2023/05/04 08:18:37;;;;;;;0.45;0.45;;;12.00;99.90;;;;;;5026181;28;20316;-72
2023/05/04 08:21:04;;;;;;;0.30;0.30;;;12.20;99.90;;;;;;5019085;28;20049;-71
2023/05/04 08:23:30;;;;;;;;;;;12.30;99.90;;;;;;5028632;28;20041;-73
2023/05/04 08:25:55;;;;;;;1.23;0.40;;;12.40;99.90;;;;;;5027904;28;19947;-73
2023/05/04 08:28:21;;;;;;;0.40;0.40;;;12.50;99.90;;;;;;5025721;28;20041;-73
2023/05/04 08:30:47;;;;;;;0.30;0.30;;;12.60;99.90;;;;;;5026829;28;20131;-74
2023/05/04 08:33:12;;;;;;;0.22;0.22;;;12.70;99.90;;;;;;5027646;28;20045;-72
2023/05/04 08:35:38;;;;;;;0.38;0.38;;;12.80;99.90;;;;;;5007632;28;20413;-73
2023/05/04 08:38:04;;;;;;;0.35;0.35;;;12.90;99.90;;;;;;5029203;28;20106;-73
2023/05/04 08:40:29;;;;;;;0.70;0.70;;;13.00;99.90;;;;;;5046407;28;20059;-72
2023/05/04 08:42:56;;;;;;;0.82;0.75;;;13.30;99.90;;;;;;5026353;28;20042;-72
2023/05/04 08:45:22;;;;;;;0.30;0.30;;;13.40;99.90;;;;;;5030712;28;20060;-74
2023/05/04 08:47:47;;;;;;;;;;;13.60;99.90;;;;;;5029399;28;20053;-73
2023/05/04 08:50:13;;;;;;;0.25;0.25;;;13.70;99.90;;;;;;5044914;28;20037;-74
2023/05/04 08:52:45;;;;;;;;;;;13.80;99.90;;;;;;5028603;28;20572;-73
2023/05/04 08:55:11;;;;;;;0.40;0.40;;;13.80;99.90;;;;;;5028373;28;19921;-74
2023/05/04 08:57:38;;;;;;;0.20;0.20;;;13.90;99.90;;;;;;5029266;28;20041;-73
2023/05/04 09:00:04;;;;;;;0.30;0.30;;;14.10;99.90;;;;;;5025733;28;20033;-73
2023/05/04 09:02:32;;;;;;;0.30;0.28;;;14.20;99.90;;;;;;5029717;28;20060;-73
2023/05/04 09:05:00;;;;;;;0.43;0.43;;;14.30;99.90;;;;;;5023363;28;20052;-73
2023/05/04 09:07:26;;;;;;;0.22;0.22;;;14.30;99.90;;;;;;5029887;28;20036;-73
2023/05/04 09:09:51;;;;;;;0.73;0.73;;;14.50;99.90;;;;;;5028335;28;21612;-73
2023/05/04 09:12:18;;;;;;;1.00;1.00;;;14.70;99.90;;;;;;5031332;28;20048;-73
2023/05/04 09:14:45;;;;;;;0.30;0.30;;;14.80;99.90;;;;;;5033898;28;20057;-73
2023/05/04 09:17:16;;;;;;;0.20;0.20;;;14.90;99.90;;;;;;5032370;28;20048;-74
2023/05/04 09:19:56;;;;;;;0.40;0.40;;;15.00;99.90;;;;;;5033029;28;20473;-74
2023/05/04 09:22:22;;;;;;;0.20;0.20;;;15.10;99.90;;;;;;5029313;28;20078;-73
2023/05/04 09:24:48;;;;;;;0.20;0.20;;;15.20;99.90;;;;;;5033622;28;20049;-73
2023/05/04 09:27:16;;;;;;;0.52;0.52;;;15.30;99.90;;;;;;5016392;28;20043;-72
2023/05/04 09:29:43;;;;;;;0.55;0.40;;;15.40;99.90;;;;;;5032836;28;20506;-73
2023/05/04 09:32:15;;;;;;;0.22;0.22;;;15.40;99.90;;;;;;5032211;28;20044;-73
2023/05/04 09:34:51;;;;;;;0.40;0.32;;;15.40;99.90;;;;;;5033489;28;20057;-74
2023/05/04 09:37:21;;;;;;;0.50;0.50;;;15.30;99.90;;;;;;5031977;28;20037;-72
2023/05/04 09:39:59;;;;;;;0.20;0.20;;;15.40;99.90;;;;;;5032148;28;20080;-73
2023/05/04 09:42:25;;;;;;;2.75;0.95;;;15.50;99.90;;;;;;5034057;28;20063;-73
2023/05/04 09:45:17;;;;;;;0.28;0.28;;;15.60;99.90;;;;;;5033525;28;20080;-73
2023/05/04 09:47:43;;;;;;;0.20;0.20;;;15.70;99.90;;;;;;5029431;28;20057;-73
2023/05/04 09:50:17;;;;;;;0.20;0.20;;;15.80;99.90;;;;;;5030484;28;20047;-72
2023/05/04 09:52:44;;;;;;;0.30;0.30;;;15.90;99.90;;;;;;5011427;28;20080;-73
2023/05/04 09:55:14;;;;;;;0.20;0.20;;;16.00;99.90;;;;;;5032577;28;20045;-73
2023/05/04 09:57:41;;;;;;;0.73;0.73;;;16.20;99.90;;;;;;5029356;28;20033;-73
2023/05/04 10:00:12;;;;;;;0.38;0.38;;;16.20;99.90;;;;;;5029226;28;20541;-73
2023/05/04 10:02:38;;;;;;;0.20;0.20;;;16.30;99.90;;;;;;5028608;28;20431;-73
2023/05/04 10:05:07;;;;;;;0.25;0.25;;;16.30;99.90;;;;;;5046655;28;20593;-73
2023/05/04 10:07:33;;;;;;;0.30;0.30;;;16.70;99.90;;;;;;5028313;28;20052;-73
2023/05/04 10:09:59;;;;;;;0.28;0.28;;;16.50;99.90;;;;;;5008436;28;20482;-71
2023/05/04 10:12:25;;;;;;;0.40;0.40;;;16.60;99.90;;;;;;5014726;28;20397;-73
2023/05/04 10:14:51;;;;;;;;;;;16.70;99.90;;;;;;5027759;28;20344;-72
2023/05/04 10:17:42;;;;;;;1.00;0.95;;;16.80;99.90;;;;;;5021724;28;19924;-73
2023/05/04 10:20:29;;;;;;;0.47;0.47;;;16.90;99.90;;;;;;5026002;28;20061;-73
2023/05/04 10:23:21;;;;;;;0.30;0.30;;;17.10;99.90;;;;;;5031000;28;20514;-73
2023/05/04 10:26:22;;;;;;;0.40;0.40;;;17.30;99.90;;;;;;5048618;28;20045;-73
2023/05/04 10:29:10;;;;;;;0.30;0.30;;;17.50;99.90;;;;;;4992662;28;20068;-73
2023/05/04 10:31:40;;;;;;;0.35;0.35;;;17.60;99.90;;;;;;5031171;28;20132;-73
2023/05/04 10:34:06;;;;;;;0.50;0.50;;;17.60;99.90;;;;;;5034231;28;20045;-73
2023/05/04 10:36:40;;;;;;;0.28;0.28;;;17.50;99.90;;;;;;5031906;28;20445;-73
2023/05/04 10:39:19;;;;;;;0.88;0.55;;;17.50;99.90;;;;;;5032688;28;20127;-73
2023/05/04 10:42:07;;;;;;;0.32;0.32;;;17.60;99.90;;;;;;5033372;28;20143;-73
2023/05/04 10:44:36;;;;;;;0.40;0.40;;;17.80;99.90;;;;;;5028484;28;20037;-73
2023/05/04 10:47:04;;;;;;;0.38;0.38;;;17.90;99.90;;;;;;5021916;28;20549;-73
2023/05/04 10:49:31;;;;;;;0.30;0.30;;;18.00;99.90;;;;;;5033196;28;20041;-74
2023/05/04 10:52:15;;;;;;;0.82;0.82;;;18.10;99.90;;;;;;5031033;28;20423;-73
2023/05/04 10:54:42;;;;;;;0.30;0.30;;;18.00;99.90;;;;;;5039528;28;20378;-73
2023/05/04 10:57:10;;;;;;;0.55;0.50;;;18.00;99.90;;;;;;5030679;28;20155;-74
2023/05/04 10:59:37;;;;;;;0.20;0.20;;;18.00;99.90;;;;;;5022540;28;20068;-73
2023/05/04 11:02:04;;;;;;;0.30;0.30;;;18.00;99.90;;;;;;5029766;28;20722;-73
2023/05/04 11:04:31;;;;;;;0.30;0.30;;;18.10;99.90;;;;;;5023658;28;20382;-73
2023/05/04 11:07:01;;;;;;;0.35;0.35;;;18.10;99.90;;;;;;5026421;28;20077;-73
2023/05/04 11:09:34;;;;;;;0.50;0.50;;;18.20;99.90;;;;;;5037889;28;20104;-73
2023/05/04 11:11:59;;;;;;;0.20;0.20;;;18.20;98.70;;;;;;5027671;28;20043;-73
2023/05/04 11:14:26;;;;;;;;;;;18.20;99.90;;;;;;5027452;28;20132;-73
2023/05/04 11:17:11;;;;;;;0.35;0.35;;;18.20;99.90;;;;;;5027349;28;19917;-74
2023/05/04 11:19:50;;;;;;;0.40;0.40;;;18.40;99.90;;;;;;5045229;28;20072;-73
2023/05/04 11:22:17;;;;;;;0.30;0.30;;;18.50;99.90;;;;;;5024525;28;20044;-74
2023/05/04 11:24:45;;;;;;;0.60;0.57;;;18.60;98.70;;;;;;5025709;28;20052;-73
2023/05/04 11:27:40;;;;;;;0.30;0.30;;;18.70;99.90;;;;;;5024886;28;20083;-74
2023/05/04 11:30:07;;;;;;;0.43;0.43;;;18.90;99.90;;;;;;5009755;28;20490;-74
2023/05/04 11:32:34;;;;;;;0.20;0.20;;;19.10;99.90;;;;;;5027231;28;20040;-73
2023/05/04 11:35:01;;;;;;;0.20;0.20;;;19.20;98.30;;;;;;5008504;28;20053;-73
2023/05/04 11:37:36;;;;;;;0.40;0.40;;;19.20;98.30;;;;;;5009697;28;20055;-73
2023/05/04 11:40:06;;;;;;;0.30;0.30;;;19.20;98.50;;;;;;5025113;28;20033;-74
2023/05/04 11:42:32;;;;;;;0.50;0.50;;;19.30;98.30;;;;;;5046462;28;20375;-74
2023/05/04 11:44:58;;;;;;;0.50;0.50;;;19.20;99.00;;;;;;5020985;28;20075;-73
2023/05/04 11:47:25;;;;;;;;;;;19.30;99.00;;;;;;5003900;28;20048;-73
2023/05/04 11:49:51;;;;;;;0.98;0.77;;;19.30;97.60;;;;;;5028819;28;19920;-73
2023/05/04 11:52:21;;;;;;;;;;;19.50;98.50;;;;;;5029130;28;20049;-73
2023/05/04 11:54:56;;;;;;;0.40;0.40;;;19.60;99.40;;;;;;5011255;28;19920;-74
2023/05/04 11:57:22;;;;;;;0.30;0.30;;;19.70;99.00;;;;;;5016696;28;20048;-73
2023/05/04 11:59:50;;;;;;;0.30;0.30;;;19.70;98.40;;;;;;5027714;28;20049;-72
2023/05/04 12:02:17;;;;;;;0.65;0.52;;;19.70;98.70;;;;;;5025180;28;20040;-72
2023/05/04 12:04:43;;;;;;;0.40;0.40;;;19.60;96.00;;;;;;5026934;28;20048;-72
2023/05/04 12:07:09;;;;;;;0.47;0.47;;;19.70;97.10;;;;;;5030826;28;20113;-73
2023/05/04 12:09:48;;;;;;;0.30;0.30;;;19.70;96.70;;;;;;5044179;28;20064;-72
2023/05/04 12:12:17;;;;;;;0.30;0.30;;;19.70;97.20;;;;;;5024528;28;20053;-72
2023/05/04 12:14:51;;;;;;;0.43;0.43;;;19.80;97.50;;;;;;5029147;28;20264;-72
2023/05/04 12:17:19;;;;;;;2.25;1.27;;;19.80;96.60;;;;;;5024651;28;20037;-72
2023/05/04 12:19:55;;;;;;;0.30;0.30;;;19.80;93.60;;;;;;5030053;28;20049;-73
2023/05/04 12:22:29;;;;;;;0.52;0.52;;;19.80;94.30;;;;;;5025282;28;20056;-74
2023/05/04 12:24:59;;;;;;;1.02;0.45;;;19.90;95.80;;;;;;5025734;28;20048;-74
2023/05/04 12:27:25;;;;;;;0.30;0.30;;;19.90;94.20;;;;;;5025649;28;20044;-73
2023/05/04 12:29:51;;;;;;;0.90;0.40;;;19.90;92.40;;;;;;5016570;28;20163;-72
2023/05/04 12:32:17;;;;;;;0.70;0.60;;;20.00;94.70;;;;;;5028336;28;20111;-72
2023/05/04 12:34:43;;;;;;;0.20;0.20;;;20.10;93.10;;;;;;5004026;28;20144;-73
2023/05/04 12:37:10;;;;;;;0.20;0.20;;;20.10;96.30;;;;;;5025987;28;20070;-72
2023/05/04 12:39:36;;;;;;;0.47;0.47;;;20.10;93.40;;;;;;5027152;28;20041;-73
2023/05/04 12:42:03;;;;;;;1.85;0.50;;;20.30;92.70;;;;;;5042540;28;20036;-72
2023/05/04 12:44:29;;;;;;;0.60;0.60;;;20.40;92.30;;;;;;5028520;28;20033;-72
2023/05/04 12:46:55;;;;;;;0.73;0.55;;;20.50;92.90;;;;;;5010514;28;20371;-73
2023/05/04 12:49:21;;;;;;;0.30;0.30;;;20.60;93.00;;;;;;5046174;28;20040;-73
2023/05/04 12:51:47;;;;;;;0.45;0.45;;;20.80;91.90;;;;;;5024469;28;20033;-73
2023/05/04 12:54:13;;;;;;;0.40;0.40;;;21.00;92.20;;;;;;5027049;28;20037;-73
2023/05/04 12:56:38;;;;;;;;;;;21.30;92.50;;;;;;5020522;28;20037;-73
2023/05/04 12:59:04;;;;;;;0.30;0.30;;;21.40;90.30;;;;;;5041434;28;20206;-73
2023/05/04 13:01:30;;;;;;;0.20;0.20;;;21.70;92.60;;;;;;5027728;28;20037;-72